Terminal Aerodrome Forecast
Issued by NWS

Home | Current Version | Previous Version | Text Only | Print | Product List | Glossary On
Versions: 1 2 3 4 5 6 7 8 9 10 11 12 13 14 15 16 17 18 19 20 21 22 23 24 25 26 27 28 29 30 31 32 33 34 35 36
000
FTAK31 PANC 220528
TAFAIL
TAF
PAIL 220528Z 2206/2306 11008KT P6SM SCT030 BKN090
     FM221900 10014G23KT P6SM VCSH SCT030 BKN050
     FM230500 10018G30KT P6SM VCSH SCT030 OVC050=

USA.gov is the U.S. government's official web portal to all federal, state and local government web resources and services.